createdAt,value
2022-07-31T00:02:08.547Z,101337.22
2022-07-31T00:04:35.162Z,101339.44
2022-07-31T00:07:02.823Z,101344.94
2022-07-31T00:09:52.561Z,101348.31
2022-07-31T00:12:17.379Z,101348.41
2022-07-31T00:14:43.905Z,101346.56
2022-07-31T00:17:10.348Z,101344.94
2022-07-31T00:19:37.348Z,101350.03
2022-07-31T00:22:03.823Z,101345.34
2022-07-31T00:24:30.516Z,101344.63
2022-07-31T00:27:07.152Z,101336.69
2022-07-31T00:29:33.719Z,101344.31
2022-07-31T00:32:00.451Z,101339.66
2022-07-31T00:34:27.746Z,101339.13
2022-07-31T00:36:54.265Z,101335.59
2022-07-31T00:39:21.811Z,101333.88
2022-07-31T00:41:49.525Z,101333.13
2022-07-31T00:44:16.418Z,101322.94
2022-07-31T00:46:45.023Z,101324.28
2022-07-31T00:49:11.485Z,101330.69
2022-07-31T00:51:39.463Z,101318.41
2022-07-31T00:54:07.404Z,101321.44
2022-07-31T00:56:34.313Z,101323.06
2022-07-31T00:59:01.565Z,101323.59
2022-07-31T01:01:29.546Z,101316.94
2022-07-31T01:03:56.633Z,101312.59
2022-07-31T01:06:23.518Z,101315.34
2022-07-31T01:08:50.026Z,101316.34
2022-07-31T01:11:19.472Z,101315.03
2022-07-31T01:13:54.030Z,101313.09
2022-07-31T01:16:25.003Z,101313.00
2022-07-31T01:18:56.773Z,101310.94
2022-07-31T01:21:41.583Z,101317.25
2022-07-31T01:24:34.328Z,101313.38
2022-07-31T01:27:28.863Z,101307.19
2022-07-31T01:29:59.206Z,101305.03
2022-07-31T01:32:32.043Z,101308.09
2022-07-31T01:35:11.727Z,101305.47
2022-07-31T01:37:55.869Z,101308.31
2022-07-31T01:40:37.932Z,101306.78
2022-07-31T01:43:11.574Z,101304.94
2022-07-31T01:45:42.818Z,101309.94
2022-07-31T01:48:15.785Z,101312.78
2022-07-31T01:50:44.873Z,101317.19
2022-07-31T01:53:20.173Z,101315.34
2022-07-31T01:56:12.545Z,101303.63
2022-07-31T01:58:41.338Z,101313.19
2022-07-31T02:01:18.672Z,101309.72
2022-07-31T02:03:51.541Z,101308.69
2022-07-31T02:06:25.768Z,101308.78
2022-07-31T02:08:54.487Z,101305.22
2022-07-31T02:11:23.939Z,101304.91
2022-07-31T02:13:53.208Z,101311.22
2022-07-31T02:16:22.405Z,101311.81
2022-07-31T02:18:58.646Z,101311.31
2022-07-31T02:21:26.757Z,101309.16
2022-07-31T02:23:53.665Z,101296.03
2022-07-31T02:26:22.450Z,101302.66
2022-07-31T02:28:50.929Z,101297.88
2022-07-31T02:31:18.465Z,101300.41
2022-07-31T02:33:48.899Z,101303.78
2022-07-31T02:36:20.926Z,101301.34
2022-07-31T02:38:50.400Z,101308.75
2022-07-31T02:41:18.185Z,101303.97
2022-07-31T02:43:45.632Z,101306.63
2022-07-31T02:46:23.844Z,101296.34
2022-07-31T02:48:51.423Z,101292.38
2022-07-31T02:51:21.109Z,101286.88
2022-07-31T02:53:49.294Z,101285.66
2022-07-31T02:56:17.148Z,101282.31
2022-07-31T02:58:43.880Z,101280.66
2022-07-31T03:01:24.290Z,101290.34
2022-07-31T03:03:50.874Z,101289.31
2022-07-31T03:06:18.782Z,101288.38
2022-07-31T03:08:45.330Z,101284.19
2022-07-31T03:11:14.926Z,101286.94
2022-07-31T03:13:43.571Z,101279.53
2022-07-31T03:16:11.826Z,101282.78
2022-07-31T03:18:40.974Z,101280.34
2022-07-31T03:21:09.869Z,101272.84
2022-07-31T03:23:38.957Z,101276.91
2022-07-31T03:26:10.584Z,101268.88
2022-07-31T03:28:38.065Z,101268.28
2022-07-31T03:31:04.543Z,101269.81
2022-07-31T03:33:31.368Z,101266.06
2022-07-31T03:35:59.483Z,101264.13
2022-07-31T03:38:38.920Z,101266.28
2022-07-31T03:41:11.650Z,101261.91
2022-07-31T03:43:44.163Z,101262.94
2022-07-31T03:46:16.769Z,101259.34
2022-07-31T03:48:43.800Z,101250.59
2022-07-31T03:51:10.902Z,101246.97
2022-07-31T03:53:38.188Z,101257.09
2022-07-31T03:56:06.758Z,101256.09
2022-07-31T03:58:34.095Z,101262.69
2022-07-31T04:01:04.617Z,101256.09
2022-07-31T04:03:35.349Z,101262.28
2022-07-31T04:06:29.620Z,101256.50
2022-07-31T04:08:57.858Z,101265.78
2022-07-31T04:11:24.767Z,101263.00
2022-07-31T04:13:51.747Z,101258.75
2022-07-31T04:16:18.217Z,101259.75
2022-07-31T04:18:48.508Z,101256.00
2022-07-31T04:21:17.711Z,101266.88
2022-07-31T04:23:49.421Z,101268.13
2022-07-31T04:26:43.702Z,101274.13
2022-07-31T04:29:10.529Z,101263.84
2022-07-31T04:31:36.978Z,101271.03
2022-07-31T04:34:06.251Z,101265.44
2022-07-31T04:36:33.523Z,101271.06
2022-07-31T04:39:01.374Z,101274.00
2022-07-31T04:41:29.477Z,101270.34
2022-07-31T04:43:57.936Z,101281.56
2022-07-31T04:46:29.591Z,101277.59
2022-07-31T04:49:23.018Z,101277.50
2022-07-31T04:51:50.117Z,101278.81
2022-07-31T04:54:16.699Z,101285.13
2022-07-31T04:56:44.159Z,101289.50
2022-07-31T04:59:13.165Z,101283.38
2022-07-31T05:01:43.289Z,101290.91
2022-07-31T05:04:11.075Z,101286.25
2022-07-31T05:06:40.573Z,101281.44
2022-07-31T05:09:12.432Z,101284.41
2022-07-31T05:11:43.725Z,101274.94
2022-07-31T05:14:12.572Z,101270.03
2022-07-31T05:16:39.403Z,101269.44
2022-07-31T05:19:13.626Z,101266.28
2022-07-31T05:22:02.697Z,101264.81
2022-07-31T05:24:55.672Z,101256.50
2022-07-31T05:27:23.577Z,101247.81
2022-07-31T05:29:57.155Z,101253.69
2022-07-31T05:32:23.900Z,101248.09
2022-07-31T05:34:52.269Z,101246.84
2022-07-31T05:37:19.906Z,101239.97
2022-07-31T05:39:47.830Z,101243.28
2022-07-31T05:42:33.534Z,101245.28
2022-07-31T05:45:13.611Z,101245.88
2022-07-31T05:47:41.156Z,101240.63
2022-07-31T05:50:09.628Z,101238.72
2022-07-31T05:52:36.407Z,101238.25
2022-07-31T05:55:25.404Z,101249.97
2022-07-31T05:58:17.214Z,101248.03
2022-07-31T06:00:46.370Z,101253.50
2022-07-31T06:03:14.043Z,101250.47
2022-07-31T06:06:16.971Z,101250.34
2022-07-31T06:08:44.178Z,101240.53
2022-07-31T06:11:10.737Z,101241.03
2022-07-31T06:13:37.681Z,101248.91
2022-07-31T06:16:19.285Z,101252.75
2022-07-31T06:18:45.854Z,101253.97
2022-07-31T06:23:38.483Z,101247.63
2022-07-31T06:26:19.930Z,101253.00
2022-07-31T06:28:53.097Z,101248.34
2022-07-31T06:31:21.788Z,101254.03
2022-07-31T06:33:51.172Z,101255.31
2022-07-31T06:36:22.820Z,101260.19
2022-07-31T06:39:00.975Z,101257.91
2022-07-31T06:41:49.812Z,101255.19
2022-07-31T06:44:45.991Z,101257.47
2022-07-31T06:47:31.444Z,101255.19
2022-07-31T06:50:36.156Z,101254.34
2022-07-31T06:53:22.274Z,101247.56
2022-07-31T06:55:49.277Z,101251.47
2022-07-31T06:58:15.783Z,101255.47
2022-07-31T07:00:42.267Z,101254.03
2022-07-31T07:03:08.807Z,101249.13
2022-07-31T07:05:36.062Z,101249.81
2022-07-31T07:08:03.630Z,101247.50
2022-07-31T07:10:32.359Z,101250.03
2022-07-31T07:12:59.093Z,101243.34
2022-07-31T07:15:27.991Z,101240.41
2022-07-31T07:17:54.472Z,101247.03
2022-07-31T07:20:31.295Z,101234.88
2022-07-31T07:23:23.374Z,101235.91
2022-07-31T07:26:09.647Z,101238.28
2022-07-31T07:28:36.673Z,101226.00
2022-07-31T07:31:06.100Z,101226.75
2022-07-31T07:33:41.083Z,101221.66
2022-07-31T07:36:23.656Z,101217.50
2022-07-31T07:38:55.409Z,101210.28
2022-07-31T07:41:24.320Z,101227.03
2022-07-31T07:43:51.575Z,101219.88
2022-07-31T07:46:22.405Z,101214.94
2022-07-31T07:48:53.887Z,101211.72
2022-07-31T07:52:09.538Z,101209.53
2022-07-31T07:54:51.379Z,101206.13
2022-07-31T07:57:44.977Z,101208.09
2022-07-31T08:00:40.659Z,101200.63
2022-07-31T08:03:51.119Z,101195.56
2022-07-31T08:05:53.699Z,101197.22
2022-07-31T08:08:20.383Z,101199.75
2022-07-31T08:10:46.929Z,101192.16
2022-07-31T08:13:24.141Z,101181.06
2022-07-31T08:16:09.040Z,101184.31
2022-07-31T08:18:49.742Z,101185.09
2022-07-31T08:21:16.359Z,101189.25
2022-07-31T08:23:42.923Z,101188.22
2022-07-31T08:26:09.558Z,101190.06
2022-07-31T08:28:36.276Z,101190.63
2022-07-31T08:31:03.489Z,101192.50
2022-07-31T08:33:33.381Z,101186.22
2022-07-31T08:36:00.876Z,101179.97
2022-07-31T08:38:29.000Z,101182.66
2022-07-31T08:41:22.974Z,101185.44
2022-07-31T08:44:00.503Z,101176.31
2022-07-31T08:46:33.385Z,101182.00
2022-07-31T08:49:03.853Z,101167.91
2022-07-31T08:51:51.661Z,101163.09
2022-07-31T08:54:19.717Z,101161.97
2022-07-31T08:56:52.191Z,101164.16
2022-07-31T08:59:20.312Z,101158.53
2022-07-31T09:01:47.369Z,101164.88
2022-07-31T09:04:13.917Z,101158.81
2022-07-31T09:06:41.550Z,101153.03
2022-07-31T09:09:08.081Z,101158.22
2022-07-31T09:11:45.287Z,101154.44
2022-07-31T09:14:34.955Z,101147.88
2022-07-31T09:17:05.354Z,101149.22
2022-07-31T09:19:54.023Z,101139.63
2022-07-31T09:22:27.346Z,101133.69
2022-07-31T09:25:15.915Z,101135.44
2022-07-31T09:27:43.046Z,101133.00
2022-07-31T09:30:10.272Z,101129.06
2022-07-31T09:33:19.642Z,101136.19
2022-07-31T09:36:25.472Z,101129.25
2022-07-31T09:39:04.257Z,101125.56
2022-07-31T09:41:59.913Z,101116.31
2022-07-31T09:44:44.858Z,101117.13
2022-07-31T09:47:38.154Z,101106.22
2022-07-31T09:50:06.312Z,101109.53
2022-07-31T09:52:33.611Z,101091.00
2022-07-31T09:55:15.780Z,101094.94
2022-07-31T09:57:58.261Z,101089.41
2022-07-31T10:00:38.709Z,101102.16
2022-07-31T10:03:33.512Z,101098.22
2022-07-31T10:06:05.522Z,101093.97
2022-07-31T10:08:37.230Z,101095.34
2022-07-31T10:11:33.466Z,101087.41
2022-07-31T10:14:18.622Z,101094.03
2022-07-31T10:16:45.644Z,101096.59
2022-07-31T10:19:35.010Z,101090.06
2022-07-31T10:22:35.691Z,101092.72
2022-07-31T10:25:03.534Z,101087.97
2022-07-31T10:27:30.960Z,101091.88
2022-07-31T10:30:06.420Z,101082.03
2022-07-31T10:32:35.725Z,101077.81
2022-07-31T10:35:22.836Z,101075.06
2022-07-31T10:38:27.493Z,101066.94
2022-07-31T10:41:03.712Z,101067.56
2022-07-31T10:43:46.958Z,101067.72
2022-07-31T10:46:31.902Z,101062.94
2022-07-31T10:49:42.884Z,101056.81
2022-07-31T10:52:30.039Z,101056.50
2022-07-31T10:55:22.851Z,101051.03
2022-07-31T10:58:25.219Z,101057.09
2022-07-31T11:01:26.497Z,101051.75
2022-07-31T11:04:32.279Z,101040.28
2022-07-31T11:07:25.837Z,101047.44
2022-07-31T11:10:10.643Z,101042.84
2022-07-31T11:13:10.970Z,101037.75
2022-07-31T11:16:05.224Z,101036.41
2022-07-31T11:19:00.950Z,101035.69
2022-07-31T11:21:40.157Z,101025.66
2022-07-31T11:24:23.515Z,101025.56
2022-07-31T11:26:54.522Z,101018.47
2022-07-31T11:30:01.084Z,101015.38
2022-07-31T11:32:26.170Z,101009.81
2022-07-31T11:34:58.690Z,101006.72
2022-07-31T11:37:46.538Z,101013.41
2022-07-31T11:40:19.619Z,101008.03
2022-07-31T11:43:00.010Z,101007.28
2022-07-31T11:45:45.897Z,101004.72
2022-07-31T11:48:15.881Z,101006.31
2022-07-31T11:50:46.395Z,101015.53
2022-07-31T11:53:13.149Z,101013.22
2022-07-31T11:55:55.362Z,101003.84
2022-07-31T11:58:24.059Z,100999.28
2022-07-31T12:00:52.866Z,100993.78
2022-07-31T12:03:22.414Z,100989.91
2022-07-31T12:05:55.014Z,100990.72
2022-07-31T12:08:23.472Z,100986.69
2022-07-31T12:10:53.423Z,100989.28
2022-07-31T12:13:21.207Z,100992.44
2022-07-31T12:16:13.986Z,100983.09
2022-07-31T12:18:46.413Z,100982.78
2022-07-31T12:21:13.030Z,100984.09
2022-07-31T12:23:42.091Z,100977.84
2022-07-31T12:26:12.067Z,100976.59
2022-07-31T12:28:38.930Z,100968.47
2022-07-31T12:31:05.401Z,100974.69
2022-07-31T12:33:44.016Z,100968.56
2022-07-31T12:36:16.186Z,100969.00
2022-07-31T12:38:47.702Z,100959.81
2022-07-31T12:41:14.756Z,100957.25
2022-07-31T12:43:51.183Z,100964.97
2022-07-31T12:46:19.304Z,100953.91
2022-07-31T12:48:46.293Z,100963.66
2022-07-31T12:51:13.152Z,100959.50
2022-07-31T12:53:39.727Z,100950.88
2022-07-31T12:56:11.509Z,100957.84
2022-07-31T12:58:37.971Z,100957.03
2022-07-31T13:01:04.569Z,100951.88
2022-07-31T13:03:38.861Z,100953.28
2022-07-31T13:06:13.192Z,100939.66
2022-07-31T13:08:39.662Z,100947.97
2022-07-31T13:11:06.125Z,100942.22
2022-07-31T13:13:32.645Z,100942.97
2022-07-31T13:15:59.312Z,100939.56
2022-07-31T13:18:25.994Z,100927.97
2022-07-31T13:20:52.495Z,100917.09
2022-07-31T13:23:21.351Z,100930.28
2022-07-31T13:25:48.280Z,100936.66
2022-07-31T13:28:15.049Z,100932.41
2022-07-31T13:30:41.625Z,100930.44
2022-07-31T13:33:08.109Z,100929.53
2022-07-31T13:35:34.612Z,100927.22
2022-07-31T13:38:01.522Z,100925.13
2022-07-31T13:40:47.073Z,100928.75
2022-07-31T13:43:13.961Z,100918.44
2022-07-31T13:45:40.436Z,100927.28
2022-07-31T13:48:09.570Z,100914.88
2022-07-31T13:50:41.253Z,100920.84
2022-07-31T13:53:08.467Z,100917.59
2022-07-31T13:55:35.009Z,100915.28
2022-07-31T13:58:01.785Z,100909.88
2022-07-31T14:00:30.099Z,100914.50
2022-07-31T14:02:57.836Z,100904.94
2022-07-31T14:05:27.514Z,100906.84
2022-07-31T14:07:55.187Z,100905.31
2022-07-31T14:10:23.323Z,100910.31
2022-07-31T14:12:49.941Z,100913.50
2022-07-31T14:15:19.157Z,100903.50
2022-07-31T14:17:45.922Z,100904.50
2022-07-31T14:20:13.110Z,100901.91
2022-07-31T14:22:39.605Z,100902.69
2022-07-31T14:25:06.286Z,100908.53
2022-07-31T14:27:34.332Z,100913.00
2022-07-31T14:30:01.594Z,100908.84
2022-07-31T14:32:30.638Z,100915.97
2022-07-31T14:34:57.811Z,100910.00
2022-07-31T14:37:24.576Z,100910.47
2022-07-31T14:39:51.175Z,100910.72
2022-07-31T14:42:22.263Z,100905.47
2022-07-31T14:44:53.467Z,100903.38
2022-07-31T14:47:20.096Z,100902.13
2022-07-31T14:50:07.523Z,100923.53
2022-07-31T14:52:33.308Z,100903.19
2022-07-31T14:55:00.660Z,100906.47
2022-07-31T14:57:29.899Z,100913.41
2022-07-31T14:59:58.587Z,100904.16
2022-07-31T15:02:26.687Z,100920.38
2022-07-31T15:04:53.703Z,100926.84
2022-07-31T15:07:41.210Z,100913.94
2022-07-31T15:10:09.832Z,100920.09
2022-07-31T15:12:36.736Z,100924.91
2022-07-31T15:15:03.935Z,100924.63
2022-07-31T15:17:30.409Z,100938.00
2022-07-31T15:19:58.458Z,100932.72
2022-07-31T15:22:26.835Z,100934.31
2022-07-31T15:24:54.211Z,100928.91
2022-07-31T15:27:23.010Z,100935.03
2022-07-31T15:30:06.175Z,100932.50
2022-07-31T15:32:39.037Z,100946.38
2022-07-31T15:35:07.905Z,100947.47
2022-07-31T15:37:39.443Z,100955.34
2022-07-31T15:40:08.769Z,100955.38
2022-07-31T15:42:38.250Z,100964.66
2022-07-31T15:45:05.549Z,100975.34
2022-07-31T15:47:32.084Z,100979.84
2022-07-31T15:49:59.650Z,100990.41
2022-07-31T15:52:30.331Z,100988.22
2022-07-31T15:54:57.175Z,101002.63
2022-07-31T15:57:24.175Z,100995.25
2022-07-31T15:59:54.291Z,101005.19
2022-07-31T16:02:22.388Z,100998.13
2022-07-31T16:04:53.120Z,100995.38
2022-07-31T16:08:30.615Z,101000.94
2022-07-31T16:10:15.477Z,100995.78
2022-07-31T16:12:47.207Z,100988.47
2022-07-31T16:15:16.104Z,100995.59
2022-07-31T16:17:43.433Z,100998.84
2022-07-31T16:20:26.293Z,100987.97
2022-07-31T16:22:56.774Z,100971.28
2022-07-31T16:25:25.147Z,100980.03
2022-07-31T16:27:52.355Z,100973.38
2022-07-31T16:30:19.094Z,100969.69
2022-07-31T16:32:45.519Z,100966.25
2022-07-31T16:35:12.829Z,100968.06
2022-07-31T16:37:50.019Z,100961.41
2022-07-31T16:40:28.768Z,100959.78
2022-07-31T16:43:49.694Z,100949.41
2022-07-31T16:45:53.728Z,100947.78
2022-07-31T16:48:21.741Z,100941.63
2022-07-31T16:50:53.430Z,100933.34
2022-07-31T16:54:10.755Z,100932.53
2022-07-31T16:56:12.192Z,100920.38
2022-07-31T16:58:38.766Z,100917.91
2022-07-31T17:01:06.272Z,100925.47
2022-07-31T17:04:00.790Z,100910.13
2022-07-31T17:06:37.340Z,100896.91
2022-07-31T17:09:15.956Z,100889.75
2022-07-31T17:11:45.798Z,100890.38
2022-07-31T17:14:12.288Z,100884.00
2022-07-31T17:16:41.242Z,100882.16
2022-07-31T17:19:10.163Z,100887.34
2022-07-31T17:21:44.494Z,100882.22
2022-07-31T17:24:12.684Z,100874.09
2022-07-31T17:26:43.579Z,100878.59
2022-07-31T17:29:10.047Z,100873.41
2022-07-31T17:31:36.519Z,100876.75
2022-07-31T17:34:08.731Z,100879.38
2022-07-31T17:36:36.240Z,100872.56
2022-07-31T17:39:03.450Z,100869.34
2022-07-31T17:41:30.202Z,100873.09
2022-07-31T17:43:56.861Z,100874.84
2022-07-31T17:46:34.741Z,100867.75
2022-07-31T17:49:05.755Z,100869.25
2022-07-31T17:51:33.057Z,100866.66
2022-07-31T17:53:59.927Z,100865.25
2022-07-31T17:56:27.656Z,100878.38
2022-07-31T17:58:55.629Z,100872.69
2022-07-31T18:01:26.934Z,100861.91
2022-07-31T18:03:55.425Z,100863.44
2022-07-31T18:06:22.326Z,100862.78
2022-07-31T18:08:48.729Z,100860.78
2022-07-31T18:11:15.269Z,100859.34
2022-07-31T18:13:48.050Z,100867.69
2022-07-31T18:16:16.031Z,100865.31
2022-07-31T18:18:42.459Z,100873.06
2022-07-31T18:21:09.065Z,100874.72
2022-07-31T18:23:35.519Z,100878.41
2022-07-31T18:26:03.318Z,100875.94
2022-07-31T18:28:31.662Z,100859.22
2022-07-31T18:31:02.683Z,100869.00
2022-07-31T18:33:29.617Z,100878.13
2022-07-31T18:35:56.650Z,100875.31
2022-07-31T18:38:23.441Z,100873.59
2022-07-31T18:40:49.917Z,100877.19
2022-07-31T18:43:16.514Z,100877.78
2022-07-31T18:45:43.027Z,100880.91
2022-07-31T18:48:09.554Z,100873.47
2022-07-31T18:50:58.773Z,100870.88
2022-07-31T18:53:23.123Z,100869.13
2022-07-31T18:55:49.579Z,100864.94
2022-07-31T18:58:16.061Z,100870.28
2022-07-31T19:00:42.587Z,100869.13
2022-07-31T19:03:09.768Z,100873.03
2022-07-31T19:05:36.258Z,100888.56
2022-07-31T19:08:03.551Z,100909.84
2022-07-31T19:10:31.481Z,100904.66
2022-07-31T19:12:59.081Z,100906.47
2022-07-31T19:15:25.651Z,100897.31
2022-07-31T19:17:52.091Z,100897.00
2022-07-31T19:20:50.872Z,100904.75
2022-07-31T19:23:12.638Z,100909.44
2022-07-31T19:26:02.529Z,100904.25
2022-07-31T19:28:27.362Z,100905.88
2022-07-31T19:30:54.589Z,100897.78
2022-07-31T19:33:21.077Z,100900.84
2022-07-31T19:35:56.867Z,100902.31
2022-07-31T19:38:29.897Z,100900.53
2022-07-31T19:40:56.680Z,100905.25
2022-07-31T19:43:49.859Z,100901.03
2022-07-31T19:46:16.659Z,100908.34
2022-07-31T19:48:45.287Z,100910.28
2022-07-31T19:51:13.540Z,100912.56
2022-07-31T19:53:40.505Z,100905.59
2022-07-31T19:56:07.574Z,100904.13
2022-07-31T19:58:35.593Z,100912.59
2022-07-31T20:01:03.184Z,100908.53
2022-07-31T20:03:30.113Z,100907.72
2022-07-31T20:05:57.869Z,100900.78
2022-07-31T20:08:24.430Z,100912.47
2022-07-31T20:10:51.455Z,100911.16
2022-07-31T20:13:18.524Z,100906.34
2022-07-31T20:15:51.537Z,100898.72
2022-07-31T20:18:29.636Z,100904.88
2022-07-31T20:21:03.587Z,100894.50
2022-07-31T20:23:34.553Z,100898.38
2022-07-31T20:26:01.716Z,100888.03
2022-07-31T20:28:29.083Z,100891.72
2022-07-31T20:30:55.811Z,100898.88
2022-07-31T20:33:23.284Z,100898.88
2022-07-31T20:35:50.512Z,100895.81
2022-07-31T20:38:22.158Z,100899.03
2022-07-31T20:40:53.941Z,100894.81
2022-07-31T20:43:26.551Z,100891.56
2022-07-31T20:45:57.250Z,100888.31
2022-07-31T20:48:30.929Z,100891.91
2022-07-31T20:51:05.182Z,100887.69
2022-07-31T20:53:32.209Z,100888.03
2022-07-31T20:55:59.003Z,100892.91
2022-07-31T20:58:26.382Z,100885.78
2022-07-31T21:00:54.188Z,100885.44
2022-07-31T21:03:21.485Z,100879.94
2022-07-31T21:05:48.442Z,100885.28
2022-07-31T21:08:15.487Z,100884.91
2022-07-31T21:10:42.242Z,100892.56
2022-07-31T21:13:09.220Z,100888.66
2022-07-31T21:15:42.898Z,100890.63
2022-07-31T21:18:14.881Z,100882.34
2022-07-31T21:20:49.958Z,100879.47
2022-07-31T21:23:21.295Z,100887.03
2022-07-31T21:25:48.246Z,100877.50
2022-07-31T21:28:15.064Z,100878.94
2022-07-31T21:30:41.532Z,100877.66
2022-07-31T21:33:08.803Z,100882.84
2022-07-31T21:35:37.017Z,100882.22
2022-07-31T21:38:05.003Z,100875.88
2022-07-31T21:40:34.283Z,100889.16
2022-07-31T21:43:01.005Z,100884.66
2022-07-31T21:45:43.422Z,100878.63
2022-07-31T21:48:15.903Z,100884.66
2022-07-31T21:50:44.795Z,100890.63
2022-07-31T21:53:11.784Z,100892.41
2022-07-31T21:55:39.397Z,100891.59
2022-07-31T21:58:07.082Z,100898.22
2022-07-31T22:00:34.799Z,100898.72
2022-07-31T22:03:03.373Z,100889.81
2022-07-31T22:05:49.454Z,100894.63
2022-07-31T22:08:16.571Z,100896.44
2022-07-31T22:10:43.540Z,100894.84
2022-07-31T22:13:10.584Z,100903.59
2022-07-31T22:15:52.565Z,100892.72
2022-07-31T22:18:26.606Z,100899.06
2022-07-31T22:20:53.970Z,100899.72
2022-07-31T22:23:21.652Z,100900.69
2022-07-31T22:25:51.354Z,100901.66
2022-07-31T22:28:20.488Z,100900.50
2022-07-31T22:30:48.291Z,100895.47
2022-07-31T22:33:15.005Z,100899.72
2022-07-31T22:35:41.613Z,100895.31
2022-07-31T22:38:08.724Z,100901.00
2022-07-31T22:40:35.385Z,100895.66
2022-07-31T22:43:03.778Z,100896.81
2022-07-31T22:45:50.206Z,100903.44
2022-07-31T22:48:18.479Z,100894.19
2022-07-31T22:50:45.187Z,100902.94
2022-07-31T22:53:11.620Z,100906.34
2022-07-31T22:55:38.196Z,100903.13
2022-07-31T22:58:05.034Z,100911.53
2022-07-31T23:00:31.945Z,100904.91
2022-07-31T23:02:58.473Z,100897.28
2022-07-31T23:05:25.700Z,100911.06
2022-07-31T23:07:52.150Z,100908.94
2022-07-31T23:10:19.138Z,100916.06
2022-07-31T23:12:45.671Z,100912.16
2022-07-31T23:15:12.298Z,100909.09
2022-07-31T23:17:38.813Z,100911.03
2022-07-31T23:20:05.987Z,100913.50
2022-07-31T23:22:33.746Z,100909.91
2022-07-31T23:25:04.632Z,100908.78
2022-07-31T23:27:32.950Z,100906.69
2022-07-31T23:30:00.890Z,100907.81
2022-07-31T23:32:29.225Z,100902.81
2022-07-31T23:34:55.667Z,100905.22
2022-07-31T23:37:22.532Z,100902.97
2022-07-31T23:39:49.533Z,100906.34
2022-07-31T23:42:34.486Z,100898.41
2022-07-31T23:45:00.934Z,100894.69
2022-07-31T23:47:44.591Z,100902.47
2022-07-31T23:50:13.355Z,100901.00
2022-07-31T23:52:39.766Z,100895.97
2022-07-31T23:55:06.411Z,100897.44
2022-07-31T23:57:34.144Z,100896.81
